Menü       Start   X °F

Wählen Sie einen anderen Zeitraum ( Verstecke diesen Bereich )

Einheiten Zeitraum Benutzerdefinierten Bereich Direkt zu
Metrisch Englisch Beide
Tägliche Wöchentliche Monatliche Jährlich
Verwenden Sie beide Datumsselektoren für einen benutzerdefinierten Bereich
vorherige Tag
Mit diesem Datum
Tägliche Zusammenfassung für Samstag 13 Juli 2024
Zeit Temp. ( °F ) Taupunkt ( °F ) Wind ( mph ) Von Windböen ( mph ) Luftdruck ( in ) Feuchtigkeit( % ) Niederschlagsrate ( in )
Hoch91.0 75.2 2.0 SW ( 48/48 ) 2.0 30.19 99 -
Durchchnittswerte72.0 66.8 0.3 Windstille #139/183 0.4 30.10 86 -
Wenig62.2 61.7 -   0.0 30.10 49 -
Tägliche Tabellarische Details für Samstag 13 Juli 2024
Zeit Temp. ( °F ) Taupunkt ( °F ) Wind ( mph ) Von Windböen ( mph ) Luftdruck ( in ) Feuchtigkeit( % ) Niederschlagsrate ( in )
00:04 67.5 65.1   Windstille   30.11 92 -
00:09 67.3 64.9   Windstille   30.11 92 -
00:14 67.1 64.9   Windstille   30.12 93 -
00:19 66.9 64.8   Windstille   30.12 93 -
00:24 66.6 64.4   Windstille   30.12 93 -
00:29 66.7 64.6   Windstille   30.12 93 -
00:34 66.7 64.6   Windstille   30.12 93 -
00:39 66.7 64.6   Windstille   30.12 93 -
00:44 66.6 64.4   Windstille   30.12 93 -
00:49 66.4 64.2   Windstille   30.12 93 -
00:54 66.2 64.0   Windstille   30.12 94 -
00:59 66.0 64.0   Windstille   30.12 94 -
01:04 66.0 64.0   Windstille   30.12 94 -
01:09 65.8 63.9   Windstille   30.12 94 -
01:14 65.8 63.9   Windstille   30.12 94 -
01:19 65.7 63.7   Windstille   30.12 94 -
01:24 65.7 63.7   Windstille   30.12 94 -
01:29 65.7 63.7   Windstille   30.12 94 -
01:34 65.5 64.0   Windstille   30.12 95 -
01:39 65.3 63.9   Windstille   30.12 95 -
01:44 65.1 63.7   Windstille   30.12 95 -
01:49 65.1 63.7   Windstille   30.12 95 -
01:54 65.1 63.7   Windstille   30.12 95 -
01:59 64.9 63.5   Windstille   30.12 95 -
02:04 64.8 63.7   Windstille   30.12 96 -
02:09 64.6 63.1   Windstille   30.12 95 -
02:14 64.6 63.5   Windstille   30.12 96 -
02:19 64.6 63.5   Windstille   30.12 96 -
02:24 64.6 63.5   Windstille   30.11 96 -
02:29 64.6 63.5   Windstille   30.12 96 -
02:34 64.6 63.5   Windstille   30.11 96 -
02:39 64.4 63.3   Windstille   30.11 96 -
02:44 64.4 63.3   Windstille   30.11 96 -
02:49 64.2 63.1   Windstille   30.10 96 -
02:54 64.0 63.0   Windstille   30.11 96 -
02:59 64.0 63.0   Windstille   30.10 96 -
03:04 64.0 63.0   Windstille   30.10 96 -
03:09 64.0 63.0   Windstille   30.10 96 -
03:14 64.0 63.1   Windstille   30.10 97 -
03:19 63.9 63.1   Windstille   30.10 97 -
03:24 63.7 63.0   Windstille   30.11 97 -
03:29 63.9 63.1   Windstille   30.11 97 -
03:34 63.9 63.1   Windstille   30.10 97 -
03:39 63.7 63.0   Windstille   30.10 97 -
03:44 63.7 63.0   Windstille   30.10 97 -
03:49 63.7 63.0   Windstille   30.10 97 -
03:54 63.9 63.1   Windstille   30.10 97 -
03:59 63.9 63.1   Windstille   30.11 97 -
04:04 63.7 63.0   Windstille   30.11 97 -
04:09 63.9 63.1   Windstille   30.11 97 -
04:14 63.9 63.1   Windstille   30.11 97 -
04:19 63.7 63.0   Windstille   30.11 97 -
04:24 63.7 63.0   Windstille   30.11 97 -
04:29 63.5 62.8   Windstille   30.11 97 -
04:34 63.5 62.8   Windstille   30.12 97 -
04:39 63.3 62.6   Windstille   30.12 98 -
04:44 63.3 62.8   Windstille   30.12 98 -
04:49 63.3 62.8   Windstille   30.12 98 -
04:54 63.3 62.8   Windstille   30.12 98 -
04:59 63.1 62.6   Windstille   30.12 98 -
05:04 63.0 62.4   Windstille   30.12 98 -
05:09 63.0 62.4   Windstille   30.12 98 -
05:14 63.1 62.6   Windstille   30.12 98 -
05:19 63.1 62.6   Windstille   30.12 98 -
05:24 63.3 62.8   Windstille   30.12 98 -
05:29 63.1 62.6   Windstille   30.12 98 -
05:34 63.0 62.4   Windstille   30.12 98 -
05:39 63.0 62.4   Windstille   30.12 98 -
05:44 63.0 62.4   Windstille   30.13 98 -
05:49 63.0 62.4   Windstille   30.13 98 -
05:54 62.8 62.2   Windstille   30.13 98 -
05:59 63.0 62.4   Windstille   30.13 98 -
06:04 62.8 62.2   Windstille   30.13 98 -
06:09 62.8 62.2   Windstille   30.14 98 -
06:14 62.6 62.1   Windstille   30.14 98 -
06:19 62.4 61.9   Windstille   30.14 98 -
06:24 62.4 61.9   Windstille   30.14 98 -
06:29 62.4 61.9   Windstille   30.15 98 -
06:34 62.2 61.7   Windstille   30.14 98 -
06:39 62.2 61.9   Windstille   30.15 99 -
06:44 62.2 61.9   Windstille   30.15 99 -
06:49 62.2 61.9   Windstille   30.15 99 -
06:54 62.2 61.9   Windstille   30.15 99 -
06:59 62.2 61.9   Windstille   30.15 99 -
07:04 62.2 61.9   Windstille   30.15 99 -
07:09 62.4 62.1   Windstille   30.15 99 -
07:14 62.4 62.1   Windstille   30.15 99 -
07:19 62.4 62.1   Windstille   30.16 99 -
07:24 62.4 62.1   Windstille   30.16 99 -
07:29 62.2 61.9   Windstille   30.15 99 -
07:34 62.6 62.2   Windstille   30.16 99 -
07:39 62.8 62.4   Windstille   30.16 99 -
07:44 63.0 62.6   Windstille   30.16 99 -
07:49 63.1 62.8   Windstille   30.16 99 -
07:54 63.7 63.3   Windstille   30.16 99 -
07:59 64.0 63.7   Windstille   30.16 99 -
08:04 64.4 63.9   Windstille   30.16 98 -
08:09 64.8 64.2   Windstille   30.17 98 -
08:14 65.5 64.8   Windstille   30.17 98 -
08:19 66.0 64.9   Windstille   30.17 97 -
08:24 66.7 64.8   Windstille   30.17 95 -
08:29 67.3 65.1   Windstille   30.17 94 -
08:34 67.6 65.3   Windstille   30.17 93 -
08:39 68.0 65.7   Windstille   30.18 92 -
08:44 68.4 65.8   Windstille   30.17 92 -
08:49 68.9 66.6   Windstille   30.18 92 -
08:54 69.3 66.6   Windstille   30.18 91 -
08:59 70.0 67.6   Windstille   30.18 92 -
09:04 70.2 67.8   Windstille   30.18 92 -
09:09 70.5 68.2   Windstille   30.18 92 -
09:14 70.7 68.4   Windstille   30.18 92 -
09:19 71.2 68.5   Windstille   30.18 92 -
09:24 72.0 68.9   Windstille   30.18 91 -
09:29 72.3 69.3   Windstille   30.18 90 -
09:34 73.0 69.6   Windstille   30.19 90 -
09:39 73.8 69.8   Windstille   30.18 88 -
09:44 74.7 70.2   Windstille 1.0 30.18 87 -
09:49 75.2 70.3   Windstille 1.0 30.18 86 -
09:54 75.7 70.9 1.0 SW 1.0 30.18 86 -
09:59 76.1 71.4   Windstille   30.18 86 -
10:04 76.5 71.6   Windstille   30.18 85 -
10:09 76.8 71.6   Windstille   30.18 85 -
10:14 77.2 72.3   Windstille   30.18 85 -
10:19 77.5 72.1   Windstille   30.18 84 -
10:24 78.1 72.1   Windstille   30.18 82 -
10:29 78.4 72.9 1.0 SW 1.0 30.18 83 -
10:34 79.0 72.7   Windstille 1.0 30.18 81 -
10:39 79.3 72.9   Windstille   30.18 81 -
10:44 79.9 73.6   Windstille 1.0 30.18 81 -
10:49 80.2 73.2   Windstille   30.18 80 -
10:54 80.6 73.9   Windstille   30.18 80 -
10:59 80.8 73.0 1.0 SW 1.0 30.18 78 -
11:04 81.3 73.0 1.0 SW 1.0 30.18 76 -
11:09 81.9 73.6   Windstille 1.0 30.17 77 -
11:14 82.2 73.2   Windstille 1.0 30.17 74 -
11:19 82.2 72.3   Windstille 1.0 30.18 72 -
11:24 82.4 72.5 2.0 SW 2.0 30.18 72 -
11:29 82.9 72.1 1.0 SW 1.0 30.17 70 -
11:34 83.5 73.0   Windstille   30.17 71 -
11:39 83.7 72.9 1.0 SW 1.0 30.17 70 -
11:44 84.4 71.4 1.0 SW 2.0 30.17 65 -
11:49 85.1 72.5 1.0 SW 2.0 30.17 67 -
11:54 85.1 72.9   Windstille   30.17 67 -
11:59 85.3 73.2   Windstille 1.0 30.17 68 -
12:04 85.8 73.6   Windstille 1.0 30.17 67 -
12:09 85.8 72.7 1.0 SW 1.0 30.18 65 -
12:14 86.0 73.4 1.0 SW 1.0 30.17 66 -
12:19 86.4 71.8 1.0 SW 2.0 30.17 62 -
12:24 86.4 71.8 2.0 SW 2.0 30.17 62 -
12:29 86.5 72.0 1.0 SW 2.0 30.17 62 -
12:34 87.1 71.2 1.0 SW 1.0 30.17 60 -
12:39 88.2 70.9 1.0 SW 1.0 30.17 57 -
12:44 88.2 72.3 1.0 SW 1.0 30.17 61 -
12:49 87.1 73.2 1.0 SW 1.0 30.16 66 -
12:54 85.1 72.9 1.0 SW 1.0 30.17 67 -
12:59 84.2 70.9 1.0 SW 1.0 30.17 65 -
13:04 83.7 71.1 1.0 SW 1.0 30.17 66 -
13:09 82.9 72.0 1.0 SW 1.0 30.16 71 -
13:14 82.2 72.7 1.0 SW 1.0 30.17 73 -
13:19 82.2 72.7   Windstille 1.0 30.16 73 -
13:24 83.3 73.2 1.0 SW 1.0 30.16 74 -
13:29 85.3 74.5 1.0 SW 1.0 30.15 72 -
13:34 86.7 75.2 1.0 SW 1.0 30.16 69 -
13:39 87.4 73.4 1.0 SW 1.0 30.15 64 -
13:44 88.9 68.2 2.0 SW 2.0 30.15 51 -
13:49 89.8 69.4 1.0 SW 1.0 30.15 52 -
13:54 90.1 70.7 2.0 SW 2.0 30.15 53 -
13:59 89.8 71.8 1.0 SW 2.0 30.15 56 -
14:04 90.0 71.8   Windstille 1.0 30.15 55 -
14:09 90.0 72.7 1.0 SW 1.0 30.15 57 -
14:14 90.3 71.1 1.0 SW 2.0 30.15 54 -
14:19 90.5 70.0 1.0 SW 2.0 30.15 51 -
14:24 91.0 69.1 1.0 SW 1.0 30.14 49 -
14:29 90.9 70.3 1.0 SW 1.0 30.14 51 -
14:34 90.9 72.0 1.0 SW 1.0 30.14 54 -
14:39 90.0 70.5 1.0 SW 1.0 30.14 53 -
14:44 90.3 70.9 1.0 SW 1.0 30.14 53 -
14:49 89.6 70.7 1.0 SW 1.0 30.14 54 -
14:54 87.3 69.8 1.0 SW 1.0 30.14 59 -
14:59 85.6 71.6 1.0 SW 1.0 30.14 63 -
15:04 85.6 73.0 1.0 SW 1.0 30.13 67 -
15:09 86.5 73.2 1.0 SW 1.0 30.14 66 -
15:14 88.0 72.7   Windstille 1.0 30.14 63 -

Laden Sie Ihre Kopie dieses Datensatzes herunter  von WetterUnterground

Unsere Wetterdaten wie bei Weather Underground

Original Weather Page

My Ham Radio Page